Time;durP1;ratioP1;P1;durP2;ratioP2;P2;SDS_P1;SDS_P2;PMS_P1;PMS_P2;Temp;Humidity;BMP_temperature;BMP_pressure;BME280_temperature;BME280_humidity;BME280_pressure;Samples;Min_cycle;Max_cycle;Signal;HPM_P1;HPM_P2
2021/09/20 00:02:13;;;;;;;11.77;7.60;;;10.30;99.90;;;11.09;89.90;100709.56;6215547;23;20013;-88
2021/09/20 00:04:39;;;;;;;12.88;7.82;;;10.30;99.90;;;11.03;90.59;100708.22;6216059;23;20012;-89
2021/09/20 00:07:05;;;;;;;17.38;8.77;;;10.30;99.90;;;10.96;90.70;100715.59;6190975;23;20385;-89
2021/09/20 00:09:32;;;;;;;12.20;7.75;;;10.10;99.90;;;10.98;91.18;100722.44;6191870;23;20036;-87
2021/09/20 00:11:58;;;;;;;11.98;7.38;;;10.10;99.90;;;10.89;91.19;100707.84;6191352;23;20009;-89
2021/09/20 00:14:26;;;;;;;12.13;8.13;;;10.00;99.90;;;10.84;91.63;100724.88;6191643;23;20004;-88
2021/09/20 00:16:52;;;;;;;11.90;7.25;;;10.10;99.90;;;10.79;91.48;100718.75;6191457;23;20012;-88
2021/09/20 00:19:18;;;;;;;11.40;8.13;;;10.00;99.90;;;10.76;92.15;100717.47;6216547;23;20094;-89
2021/09/20 00:21:44;;;;;;;10.48;7.18;;;10.00;99.90;;;10.75;92.45;100718.66;6216746;23;20012;-88
2021/09/20 00:24:10;;;;;;;10.68;7.47;;;9.90;99.90;;;10.77;92.26;100733.06;6216865;23;20027;-88
2021/09/20 00:26:38;;;;;;;12.40;7.90;;;9.90;99.90;;;10.74;92.29;100716.19;6217630;23;20031;-87
2021/09/20 00:29:05;;;;;;;11.77;7.75;;;9.90;99.90;;;10.78;92.42;100717.94;6192539;23;20005;-86
2021/09/20 00:31:31;;;;;;;11.73;8.20;;;9.90;99.90;;;10.83;91.91;100714.03;6217141;23;20013;-89
2021/09/20 00:33:58;;;;;;;10.18;7.45;;;10.00;99.90;;;10.90;91.76;100717.03;6217545;23;20031;-88
2021/09/20 00:36:24;;;;;;;12.02;8.10;;;10.10;99.90;;;10.98;91.82;100719.66;6217225;23;20025;-87
2021/09/20 00:38:50;;;;;;;12.40;7.68;;;10.10;99.90;;;11.06;91.24;100718.69;6192413;23;20005;-86
2021/09/20 00:41:16;;;;;;;12.80;8.05;;;10.10;99.90;;;11.06;91.14;100717.88;6191375;23;20012;-88
2021/09/20 00:43:42;;;;;;;11.70;7.72;;;10.20;99.90;;;11.09;91.28;100722.72;6217025;23;20080;-87
2021/09/20 00:46:09;;;;;;;12.60;7.95;;;10.20;99.90;;;11.11;90.93;100717.59;6216473;23;20005;-88
2021/09/20 00:48:36;;;;;;;10.25;7.35;;;10.20;99.90;;;11.16;91.35;100724.91;6217067;23;20004;-88
2021/09/20 00:51:03;;;;;;;11.25;7.90;;;10.30;99.90;;;11.27;90.43;100726.00;6217224;23;20099;-90
2021/09/20 00:53:29;;;;;;;12.10;7.35;;;10.30;99.90;;;11.28;90.49;100722.00;6192725;23;20092;-87
2021/09/20 00:55:56;;;;;;;13.15;7.00;;;10.40;99.90;;;11.29;90.11;100724.47;6217773;23;20072;-88
2021/09/20 00:58:23;;;;;;;9.25;6.97;;;10.40;99.90;;;11.35;89.75;100725.00;6192666;23;20008;-87
2021/09/20 01:00:50;;;;;;;13.00;7.72;;;10.40;99.90;;;11.40;89.09;100733.09;6192744;23;20012;-88
2021/09/20 01:03:16;;;;;;;9.55;7.05;;;10.40;99.90;;;11.40;89.04;100724.72;6192218;23;20005;-87
2021/09/20 01:05:43;;;;;;;12.57;7.68;;;10.50;99.90;;;11.45;88.22;100730.03;6192512;23;20001;-90
2021/09/20 01:08:09;;;;;;;9.45;6.38;;;10.50;99.90;;;11.50;87.59;100726.97;6191903;23;20005;-89
2021/09/20 01:10:35;;;;;;;11.82;7.38;;;10.60;99.90;;;11.49;88.24;100722.56;6191449;23;20008;-86
2021/09/20 01:13:03;;;;;;;8.60;6.47;;;10.50;99.90;;;11.51;87.67;100723.00;6217032;23;20004;-85
2021/09/20 01:15:29;;;;;;;10.10;6.95;;;10.60;99.90;;;11.55;87.56;100732.28;6194725;23;20441;-86
2021/09/20 01:17:55;;;;;;;10.88;7.57;;;10.60;99.90;;;11.56;87.30;100737.50;6204280;23;20005;-88
2021/09/20 01:20:22;;;;;;;12.02;6.75;;;10.70;99.90;;;11.60;87.45;100735.63;6230983;23;20012;-87
2021/09/20 01:23:03;;;;;;;11.23;7.43;;;10.60;99.90;;;11.52;87.33;100741.41;6226233;23;20009;-88
2021/09/20 01:25:31;;;;;;;11.35;7.30;;;10.70;99.90;;;11.59;85.71;100733.19;6218313;23;20005;-89
2021/09/20 01:27:58;;;;;;;11.63;7.60;;;10.70;99.90;;;11.60;85.58;100737.59;6218876;23;20156;-91
2021/09/20 01:30:25;;;;;;;9.70;6.85;;;10.70;99.90;;;11.69;84.66;100746.59;6217532;23;20012;-90
2021/09/20 01:32:52;;;;;;;10.52;7.13;;;10.70;99.90;;;11.70;84.78;100739.03;6217513;23;20012;-87
2021/09/20 01:35:22;;;;;;;9.80;6.82;;;10.80;99.90;;;11.72;84.71;100737.50;6217612;23;20001;-88
2021/09/20 01:37:49;;;;;;;12.05;6.78;;;10.80;99.90;;;11.70;85.40;100739.03;6191489;23;20093;-89
2021/09/20 01:40:17;;;;;;;10.68;6.85;;;10.80;99.90;;;11.69;84.89;100732.63;6217146;23;20350;-88
2021/09/20 01:42:44;;;;;;;12.55;7.07;;;10.70;99.90;;;11.68;84.55;100735.78;6219588;23;20048;-90
2021/09/20 01:45:16;;;;;;;9.45;6.95;;;10.80;99.90;;;11.67;84.51;100734.97;6193971;23;20025;-87
2021/09/20 01:47:43;;;;;;;9.52;7.20;;;10.70;99.90;;;11.68;84.60;100733.81;6191770;23;20074;-87
2021/09/20 01:50:14;;;;;;;11.65;7.43;;;10.70;99.90;;;11.67;85.10;100736.97;6192422;23;20339;-90
2021/09/20 01:52:41;;;;;;;10.55;6.97;;;10.70;99.90;;;11.67;84.34;100734.16;6217901;23;20092;-88
2021/09/20 01:55:11;;;;;;;11.32;7.45;;;10.70;99.90;;;11.65;84.05;100732.53;6192433;23;20012;-90
2021/09/20 01:57:37;;;;;;;9.82;6.90;;;10.70;99.90;;;11.65;84.21;100735.31;6192253;23;20013;-89
2021/09/20 02:00:09;;;;;;;10.88;7.43;;;10.70;99.90;;;11.68;84.14;100733.00;6204130;22;20076;-81
2021/09/20 02:02:35;;;;;;;10.27;7.50;;;10.70;99.90;;;11.65;84.29;100723.34;6241738;22;20005;-86
2021/09/20 02:05:01;;;;;;;11.57;7.82;;;10.70;99.90;;;11.64;83.98;100730.94;6220149;23;20009;-90
2021/09/20 02:07:27;;;;;;;9.45;6.78;;;10.70;99.90;;;11.65;83.68;100726.94;6219273;23;20004;-91
2021/09/20 02:09:52;;;;;;;7.65;6.07;;;10.70;99.90;;;11.66;84.29;100733.34;6191709;23;20369;-87
2021/09/20 02:12:19;;;;;;;10.90;7.55;;;10.70;99.90;;;11.65;83.58;100724.13;6191780;23;20009;-89
2021/09/20 02:14:45;;;;;;;10.07;7.35;;;10.70;99.90;;;11.66;83.39;100733.34;6217109;23;20045;-91
2021/09/20 02:17:11;;;;;;;9.02;6.85;;;10.70;99.90;;;11.73;83.40;100733.56;6191897;23;20015;-91
2021/09/20 02:19:39;;;;;;;10.40;7.25;;;10.80;99.90;;;11.73;83.13;100733.56;6219032;23;20000;-89
2021/09/20 02:22:05;;;;;;;10.90;7.82;;;10.80;99.90;;;11.63;82.81;100739.66;6217065;23;20077;-87
2021/09/20 02:24:32;;;;;;;9.88;7.40;;;10.80;99.90;;;11.68;82.11;100736.59;6217407;23;20011;-88
2021/09/20 02:26:58;;;;;;;11.52;7.20;;;10.80;99.90;;;11.73;81.60;100727.13;6191657;23;20034;-88
2021/09/20 02:29:25;;;;;;;10.40;7.32;;;10.80;99.90;;;11.73;81.92;100730.75;6216923;23;20095;-91
2021/09/20 02:31:51;;;;;;;11.00;7.40;;;10.80;99.90;;;11.73;81.93;100727.13;6191977;23;20008;-91
2021/09/20 02:34:17;;;;;;;9.75;7.25;;;10.80;99.90;;;11.64;81.60;100733.72;6217321;23;20023;-89
2021/09/20 02:36:45;;;;;;;10.82;7.40;;;10.80;99.90;;;11.65;81.48;100735.31;6191907;23;20016;-89
2021/09/20 02:39:11;;;;;;;10.32;7.90;;;10.70;99.90;;;11.69;81.50;100729.03;6217158;23;20459;-90
2021/09/20 02:41:37;;;;;;;9.85;7.72;;;10.70;99.90;;;11.65;81.63;100726.94;6191842;23;20013;-91
2021/09/20 02:44:04;;;;;;;10.18;7.40;;;10.80;99.90;;;11.64;81.49;100725.34;6192364;23;20007;-91
2021/09/20 02:46:30;;;;;;;10.60;7.72;;;10.70;99.90;;;11.69;81.52;100732.63;6192067;23;20008;-87
2021/09/20 02:48:56;;;;;;;10.38;7.50;;;10.70;99.90;;;11.69;81.84;100735.41;6217867;23;20005;-91
2021/09/20 02:51:22;;;;;;;11.55;8.50;;;10.70;99.90;;;11.68;81.18;100733.81;6216787;23;20016;-90
2021/09/20 02:53:48;;;;;;;9.80;7.22;;;10.80;99.90;;;11.75;81.19;100733.19;6217082;23;20008;-86
2021/09/20 02:56:14;;;;;;;10.60;7.65;;;10.70;99.90;;;11.67;80.97;100729.38;6216705;23;20015;-89
2021/09/20 02:58:40;;;;;;;9.80;7.38;;;10.70;99.90;;;11.76;81.02;100737.59;6216261;23;20008;-89
2021/09/20 03:01:07;;;;;;;10.07;7.88;;;10.70;99.90;;;11.70;80.82;100731.47;6190725;23;20015;-85
2021/09/20 03:03:33;;;;;;;8.35;6.60;;;10.80;99.90;;;11.69;81.40;100732.63;6216661;23;20005;-91
2021/09/20 03:05:59;;;;;;;8.23;6.53;;;10.80;99.90;;;11.69;81.78;100737.44;6217397;23;20005;-86
2021/09/20 03:08:25;;;;;;;9.27;7.18;;;10.80;99.90;;;11.69;80.69;100743.03;6191704;23;20009;-87
2021/09/20 03:10:51;;;;;;;10.10;7.95;;;10.80;99.90;;;11.72;81.08;100739.53;6218020;23;20000;-87
2021/09/20 03:13:17;;;;;;;11.48;7.85;;;10.80;99.90;;;11.74;80.51;100740.78;6191776;23;20099;-87
2021/09/20 03:15:44;;;;;;;10.88;8.00;;;10.80;99.90;;;11.69;80.85;100734.63;6216637;23;20336;-89
2021/09/20 03:18:10;;;;;;;10.90;7.55;;;10.80;99.90;;;11.71;80.77;100738.72;6192076;23;20512;-91
2021/09/20 03:20:36;;;;;;;11.18;8.57;;;10.80;99.90;;;11.71;81.00;100743.50;6217406;23;20099;-88
2021/09/20 03:23:02;;;;;;;13.45;8.30;;;10.80;99.90;;;11.74;80.63;100737.16;6191638;23;20032;-88
2021/09/20 03:25:28;;;;;;;10.45;7.80;;;10.80;99.90;;;11.77;80.16;100745.66;6218329;23;20011;-89
2021/09/20 03:27:53;;;;;;;9.90;7.63;;;10.80;99.90;;;11.77;80.73;100740.06;6216783;23;20012;-87
2021/09/20 03:30:20;;;;;;;11.02;7.97;;;10.80;99.90;;;11.75;80.52;100747.19;6216612;23;20008;-85
2021/09/20 03:32:46;;;;;;;10.15;7.68;;;10.80;99.90;;;11.73;80.70;100744.75;6216660;23;20012;-86
2021/09/20 03:35:15;;;;;;;9.15;7.15;;;10.80;99.90;;;11.72;81.01;100743.09;6190811;23;20009;-87
2021/09/20 03:37:46;;;;;;;11.10;7.63;;;10.70;99.90;;;11.68;80.44;100742.22;6190603;23;20005;-88
2021/09/20 03:40:16;;;;;;;10.88;7.93;;;10.70;99.90;;;11.64;80.98;100744.91;6215811;23;20043;-86
2021/09/20 03:42:44;;;;;;;12.73;8.55;;;10.70;99.90;;;11.73;80.16;100743.94;6217483;23;20087;-87
2021/09/20 03:45:12;;;;;;;12.32;8.05;;;10.70;99.90;;;11.75;79.88;100752.78;6220228;23;20032;-89
2021/09/20 03:47:39;;;;;;;11.52;8.60;;;10.70;99.90;;;11.68;80.29;100752.59;6195691;23;20117;-89
2021/09/20 03:50:11;;;;;;;11.27;8.38;;;10.70;99.90;;;11.66;80.33;100761.31;6223607;23;20009;-91
2021/09/20 03:52:39;;;;;;;13.70;8.50;;;10.70;99.90;;;11.71;80.13;100758.28;6220351;23;20009;-91
2021/09/20 03:55:06;;;;;;;11.13;7.68;;;10.70;99.90;;;11.73;79.87;100763.50;6218558;23;20016;-91
2021/09/20 03:57:32;;;;;;;13.98;8.30;;;10.80;99.90;;;11.74;80.10;100762.34;6193705;23;20039;-90
2021/09/20 03:59:58;;;;;;;14.35;9.15;;;10.80;99.90;;;11.69;80.13;100771.00;6192392;23;20453;-89
2021/09/20 04:02:24;;;;;;;10.85;8.10;;;10.70;99.90;;;11.68;80.30;100759.00;6193201;23;20008;-87
2021/09/20 04:04:49;;;;;;;11.20;7.65;;;10.70;99.90;;;11.75;80.56;100775.19;6199384;23;20009;-92
2021/09/20 04:07:15;;;;;;;11.20;7.93;;;10.80;99.90;;;11.73;80.43;100774.72;6201052;23;20059;-93
2021/09/20 04:09:41;;;;;;;9.95;7.75;;;10.70;99.90;;;11.69;80.22;100774.59;6222574;23;20015;-90
2021/09/20 04:12:09;;;;;;;10.98;7.82;;;10.70;99.90;;;11.67;80.44;100776.13;6220773;23;20009;-93
2021/09/20 04:14:38;;;;;;;11.77;8.07;;;10.70;99.90;;;11.60;80.50;100773.97;6220856;23;20015;-90
2021/09/20 04:17:07;;;;;;;14.13;8.25;;;10.70;99.90;;;11.65;80.51;100773.72;6236348;22;19993;-84
2021/09/20 04:19:34;;;;;;;13.27;8.02;;;10.70;99.90;;;11.68;80.22;100781.38;6234582;22;20046;-88
2021/09/20 04:22:00;;;;;;;10.57;7.28;;;10.70;99.90;;;11.69;80.32;100780.19;6216538;23;20032;-89
2021/09/20 04:24:26;;;;;;;15.55;8.48;;;10.70;99.90;;;11.64;80.30;100777.66;6194570;23;20013;-91
2021/09/20 04:26:52;;;;;;;8.88;7.28;;;10.60;99.90;;;11.69;79.83;100782.97;6195596;23;20332;-89
2021/09/20 04:29:18;;;;;;;10.57;7.50;;;10.80;99.90;;;11.72;78.74;100782.28;6197283;23;20080;-85
2021/09/20 04:31:44;;;;;;;11.75;8.23;;;10.70;99.90;;;11.72;79.07;100789.91;6219963;23;20366;-89
2021/09/20 04:34:10;;;;;;;11.95;8.50;;;10.80;99.90;;;11.72;78.94;100799.06;6223804;23;20065;-89
2021/09/20 04:36:36;;;;;;;10.93;8.48;;;10.80;99.90;;;11.73;78.86;100795.09;6191895;23;20012;-89
2021/09/20 04:39:03;;;;;;;10.98;8.30;;;10.80;99.90;;;11.71;78.26;100791.06;6217796;23;20008;-89
2021/09/20 04:41:29;;;;;;;12.75;8.38;;;10.80;99.90;;;11.70;78.46;100800.59;6215626;23;20135;-88
2021/09/20 04:43:55;;;;;;;10.52;8.15;;;10.70;99.90;;;11.70;78.33;100804.22;6217173;23;20078;-89
2021/09/20 04:46:21;;;;;;;10.27;7.55;;;10.80;99.90;;;11.63;78.38;100793.63;6216381;23;20009;-86
2021/09/20 04:48:47;;;;;;;10.68;8.02;;;10.70;99.90;;;11.68;78.77;100800.97;6216217;23;20063;-87
2021/09/20 04:51:13;;;;;;;13.75;9.00;;;10.70;99.90;;;11.72;78.57;100803.88;6190672;23;20047;-89
2021/09/20 04:53:39;;;;;;;13.10;8.77;;;10.70;99.90;;;11.68;78.45;100803.75;6216451;23;20615;-89
2021/09/20 04:56:05;;;;;;;11.30;8.23;;;10.80;99.90;;;11.71;78.62;100805.03;6218481;23;20008;-89
2021/09/20 04:58:31;;;;;;;11.68;7.68;;;10.70;99.90;;;11.71;78.44;100813.44;6193382;23;20009;-89
2021/09/20 05:00:56;;;;;;;10.82;8.85;;;10.80;99.90;;;11.61;78.22;100809.97;6194095;23;20280;-89
2021/09/20 05:03:22;;;;;;;10.90;9.25;;;10.70;99.90;;;11.68;78.68;100814.13;6193639;23;20008;-89
2021/09/20 05:05:49;;;;;;;12.10;8.50;;;10.80;99.90;;;11.74;78.50;100819.13;6220117;23;20000;-87
2021/09/20 05:08:17;;;;;;;12.82;8.25;;;10.80;99.90;;;11.71;78.47;100819.84;6220913;23;20015;-89
2021/09/20 05:10:44;;;;;;;12.40;8.40;;;10.70;99.90;;;11.70;78.48;100817.38;6218108;23;20000;-89
2021/09/20 05:13:10;;;;;;;11.52;8.70;;;10.80;99.90;;;11.71;78.30;100825.44;6220237;23;20000;-89
2021/09/20 05:15:36;;;;;;;11.27;9.02;;;10.80;99.90;;;11.63;78.74;100820.78;6192625;23;20011;-88
2021/09/20 05:18:04;;;;;;;15.07;8.82;;;10.80;99.90;;;11.63;78.81;100823.59;6218988;23;20498;-88
2021/09/20 05:20:30;;;;;;;13.35;8.95;;;10.80;99.90;;;11.73;78.49;100825.06;6217964;23;20044;-86
2021/09/20 05:22:56;;;;;;;10.80;8.88;;;10.80;99.90;;;11.75;78.60;100829.13;6193510;23;20019;-85
2021/09/20 05:25:22;;;;;;;12.55;9.35;;;10.80;99.90;;;11.65;78.98;100821.28;6192260;23;20068;-90
2021/09/20 05:27:51;;;;;;;15.23;9.73;;;10.70;99.90;;;11.74;78.55;100827.53;6218019;23;20036;-89
2021/09/20 05:30:17;;;;;;;13.27;9.88;;;10.70;99.90;;;11.79;77.96;100832.84;6219958;23;20435;-89
2021/09/20 05:32:44;;;;;;;12.25;9.00;;;10.80;99.90;;;11.82;78.27;100836.88;6193749;23;20035;-89
2021/09/20 05:35:13;;;;;;;12.82;9.57;;;10.80;99.90;;;11.79;78.23;100837.63;6193603;23;20331;-90
2021/09/20 05:37:41;;;;;;;14.70;10.20;;;10.90;99.90;;;11.83;78.06;100833.75;6218207;23;20028;-89
2021/09/20 05:40:10;;;;;;;14.02;9.30;;;10.90;99.90;;;11.89;77.85;100837.06;6218942;23;20044;-91
2021/09/20 05:42:36;;;;;;;12.40;9.05;;;10.90;99.90;;;11.89;77.87;100840.69;6219606;23;20004;-90
2021/09/20 05:45:04;;;;;;;14.90;10.38;;;10.90;99.90;;;11.81;77.89;100840.88;6220881;23;20407;-88
2021/09/20 05:47:30;;;;;;;13.02;8.90;;;10.90;99.90;;;11.87;78.04;100837.44;6218263;23;20012;-89
2021/09/20 05:49:56;;;;;;;12.65;9.18;;;10.90;99.90;;;11.87;77.24;100843.03;6192647;23;20338;-90
2021/09/20 05:52:22;;;;;;;18.35;10.10;;;10.90;99.90;;;11.87;77.16;100848.66;6221081;23;20014;-88
2021/09/20 05:54:49;;;;;;;14.57;9.70;;;10.90;99.90;;;11.92;76.48;100847.53;6193983;23;20338;-90
2021/09/20 05:57:18;;;;;;;12.50;9.63;;;10.90;99.90;;;11.92;76.25;100848.34;6219668;23;20009;-90
2021/09/20 05:59:44;;;;;;;13.13;10.02;;;11.00;99.90;;;12.00;76.58;100861.38;6219736;23;20181;-89
2021/09/20 06:02:10;;;;;;;13.57;9.52;;;11.00;99.90;;;12.10;76.07;100854.41;6193943;23;20032;-90
2021/09/20 06:04:37;;;;;;;16.08;9.98;;;11.10;99.90;;;12.17;75.35;100850.97;6194305;23;20324;-91
2021/09/20 06:07:03;;;;;;;11.77;9.60;;;11.10;99.90;;;12.15;74.84;100849.31;6220001;23;20001;-91
2021/09/20 06:09:29;;;;;;;13.27;8.82;;;11.30;99.90;;;12.33;74.83;100868.53;6227402;23;20001;-89
2021/09/20 06:11:55;;;;;;;13.77;10.10;;;11.30;99.90;;;12.38;74.69;100855.06;6234175;23;20015;-86
2021/09/20 06:14:21;;;;;;;12.93;9.27;;;11.40;99.90;;;12.55;73.87;100871.44;6237728;23;20013;-87
2021/09/20 06:16:47;;;;;;;14.57;9.90;;;11.50;99.90;;;12.74;73.54;100867.06;6232730;23;20020;-88
2021/09/20 06:19:17;;;;;;;14.05;9.65;;;11.60;99.90;;;12.94;72.67;100868.69;6229823;23;20044;-90
2021/09/20 06:21:43;;;;;;;12.60;8.85;;;11.70;99.90;;;13.20;72.73;100860.44;6225076;23;20005;-89
2021/09/20 06:24:08;;;;;;;10.15;7.82;;;11.80;99.90;;;13.33;69.68;100870.31;6227552;23;20066;-88
2021/09/20 06:26:34;;;;;;;14.80;9.13;;;11.90;99.90;;;13.62;68.95;100871.66;6201466;23;20004;-89
2021/09/20 06:29:00;;;;;;;11.40;7.75;;;12.10;99.90;;;13.99;67.69;100874.72;6199041;23;20404;-90
2021/09/20 06:31:26;;;;;;;12.15;8.40;;;12.20;99.90;;;13.96;67.15;100872.66;6196877;23;20019;-92
2021/09/20 06:33:52;;;;;;;14.02;8.57;;;12.30;99.90;;;14.02;66.96;100882.38;6216352;22;19997;-82
2021/09/20 06:36:18;;;;;;;8.57;7.47;;;12.40;99.90;;;14.25;66.06;100881.16;6231242;23;20031;-93
2021/09/20 06:38:44;;;;;;;12.77;8.50;;;12.50;99.90;;;14.16;66.63;100876.97;6196943;23;20340;-93
2021/09/20 06:41:10;;;;;;;11.38;8.38;;;12.50;99.90;;;14.12;66.20;100871.34;6234257;23;20036;-86
2021/09/20 06:43:37;;;;;;;13.10;9.25;;;12.60;99.90;;;14.05;66.07;100876.84;6236092;23;20039;-88
2021/09/20 06:46:03;;;;;;;11.13;8.38;;;12.70;99.90;;;14.11;66.17;100880.94;6236042;23;20004;-88
2021/09/20 06:48:29;;;;;;;12.00;8.30;;;12.70;99.90;;;14.17;66.15;100875.81;6199003;23;20453;-90
2021/09/20 06:50:55;;;;;;;15.30;9.10;;;12.80;99.90;;;14.30;66.47;100884.84;6222840;23;20008;-87
2021/09/20 06:53:20;;;;;;;12.18;8.73;;;12.90;99.90;;;14.35;66.58;100887.38;6223332;23;20399;-88
2021/09/20 06:55:46;;;;;;;12.48;8.98;;;13.00;99.90;;;14.39;64.20;100885.41;6222379;23;20407;-87
2021/09/20 06:58:12;;;;;;;10.73;8.32;;;13.00;99.90;;;14.43;64.69;100889.91;6219812;23;20252;-86
2021/09/20 07:00:38;;;;;;;13.38;8.45;;;13.00;99.90;;;14.55;64.94;100877.63;6194368;23;20016;-87
2021/09/20 07:03:04;;;;;;;12.10;8.63;;;13.20;99.90;;;14.70;64.34;100885.88;6220044;23;20004;-88
2021/09/20 07:05:33;;;;;;;11.57;8.43;;;13.30;99.90;;;14.95;63.79;100880.59;6219744;23;20430;-87
2021/09/20 07:08:00;;;;;;;12.50;8.63;;;13.60;99.90;;;15.18;62.08;100894.56;6219447;23;20004;-86
2021/09/20 07:10:29;;;;;;;11.63;8.30;;;13.70;99.90;;;15.19;62.30;100896.97;6218870;23;20034;-88
2021/09/20 07:12:54;;;;;;;11.18;8.48;;;13.80;99.90;;;15.27;63.23;100895.88;6194410;23;20355;-88
2021/09/20 07:15:21;;;;;;;10.55;8.35;;;13.90;99.90;;;15.46;61.88;100891.25;6195163;23;20008;-88
2021/09/20 07:17:49;;;;;;;11.50;8.77;;;14.00;99.90;;;15.68;61.56;100893.13;6219528;23;20015;-88
2021/09/20 07:20:16;;;;;;;14.13;8.60;;;14.20;99.90;;;15.73;60.83;100898.41;6219343;23;20032;-87
2021/09/20 07:22:44;;;;;;;9.85;8.10;;;14.40;99.90;;;15.93;60.36;100902.63;6194078;23;20324;-87
2021/09/20 07:25:13;;;;;;;11.43;8.30;;;14.50;99.90;;;15.86;60.09;100901.75;6193842;23;20008;-87
2021/09/20 07:27:39;;;;;;;10.80;8.10;;;14.60;99.90;;;16.03;59.47;100899.09;6219095;23;20059;-89
2021/09/20 07:30:08;;;;;;;9.95;7.93;;;14.80;99.90;;;16.27;57.97;100906.16;6218535;23;20038;-89
2021/09/20 07:32:35;;;;;;;10.25;7.88;;;15.00;99.90;;;16.41;57.95;100900.59;6193503;23;20435;-88
2021/09/20 07:35:01;;;;;;;14.15;7.10;;;15.20;99.90;;;16.43;57.30;100914.31;6219074;23;20124;-88
2021/09/20 07:37:26;;;;;;;7.72;5.80;;;15.20;99.90;;;16.44;57.65;100915.94;6219030;23;20012;-88
2021/09/20 07:39:52;;;;;;;8.35;6.78;;;15.20;99.90;;;16.64;56.77;100912.47;6193036;23;20435;-88
2021/09/20 07:42:18;;;;;;;9.38;6.88;;;15.40;99.90;;;16.52;56.51;100907.13;6193528;23;20009;-89
2021/09/20 07:44:44;;;;;;;10.90;7.30;;;15.50;99.90;;;17.01;57.58;100919.97;6217851;23;20028;-86
2021/09/20 07:47:10;;;;;;;9.10;6.50;;;15.70;99.90;;;17.08;55.98;100922.81;6218295;23;20009;-88
2021/09/20 07:49:36;;;;;;;9.95;6.13;;;15.80;99.90;;;17.36;54.74;100928.59;6217668;23;20054;-86
2021/09/20 07:52:02;;;;;;;9.65;6.30;;;16.10;99.90;;;17.51;53.26;100920.97;6217318;23;20039;-88
2021/09/20 07:54:28;;;;;;;10.20;6.03;;;16.30;99.90;;;17.79;53.45;100918.22;6192146;23;20016;-86
2021/09/20 07:56:55;;;;;;;8.00;5.45;;;16.40;99.90;;;17.77;51.30;100932.78;6192805;23;20096;-87
2021/09/20 07:59:21;;;;;;;18.40;5.72;;;16.70;99.90;;;17.66;51.90;100920.63;6217659;23;20013;-88
2021/09/20 08:01:47;;;;;;;6.72;4.93;;;16.60;99.90;;;17.79;50.77;100926.72;6191601;23;20070;-87
2021/09/20 08:04:13;;;;;;;5.82;4.90;;;16.70;99.90;;;17.55;50.04;100924.63;6217254;23;20009;-86
2021/09/20 08:06:40;;;;;;;6.68;5.07;;;16.70;99.90;;;17.42;51.83;100938.28;6217444;23;20040;-88
2021/09/20 08:09:06;;;;;;;6.32;5.18;;;16.60;99.90;;;17.35;50.55;100944.72;6217166;23;20005;-88
2021/09/20 08:11:32;;;;;;;9.52;5.20;;;16.60;99.90;;;17.04;51.59;100938.91;6192346;23;20044;-86
2021/09/20 08:13:58;;;;;;;9.45;6.10;;;16.50;99.90;;;17.60;52.13;100938.38;6192751;23;20016;-88
2021/09/20 08:16:24;;;;;;;7.97;5.38;;;16.60;99.90;;;17.92;51.96;100938.47;6218987;23;20020;-87
2021/09/20 08:18:50;;;;;;;10.27;6.90;;;16.80;99.90;;;18.15;51.24;100933.22;6218980;23;20316;-87
2021/09/20 08:21:16;;;;;;;7.15;5.75;;;16.90;99.90;;;18.37;50.47;100938.47;6218368;23;20004;-86
2021/09/20 08:23:42;;;;;;;7.82;5.90;;;17.10;99.90;;;18.51;50.56;100934.88;6193484;23;20039;-86
2021/09/20 08:26:08;;;;;;;8.13;6.43;;;17.20;99.90;;;18.74;50.89;100940.91;6218239;23;20083;-88
2021/09/20 08:28:34;;;;;;;8.00;5.95;;;17.40;99.90;;;18.71;48.90;100943.75;6218601;23;20506;-87
2021/09/20 08:31:00;;;;;;;7.25;5.10;;;17.40;99.40;;;19.01;49.17;100958.22;6194166;23;20439;-85
2021/09/20 08:33:26;;;;;;;7.00;5.00;;;17.60;99.90;;;18.79;47.30;100951.00;6193736;23;20017;-87
2021/09/20 08:35:53;;;;;;;5.60;4.93;;;17.50;97.00;;;18.93;47.67;100963.13;6217730;23;20012;-88
2021/09/20 08:38:19;;;;;;;7.78;5.07;;;17.70;97.40;;;19.03;48.27;100953.00;6217655;23;20008;-87
2021/09/20 08:40:46;;;;;;;9.75;6.22;;;17.60;97.70;;;19.29;49.33;100965.84;6217981;23;20054;-88
2021/09/20 08:43:12;;;;;;;7.78;6.10;;;17.80;98.40;;;19.33;48.25;100956.13;6192681;23;20039;-88
2021/09/20 08:45:38;;;;;;;10.13;5.90;;;17.90;97.50;;;19.35;48.87;100955.72;6193183;23;20001;-88
2021/09/20 08:48:05;;;;;;;8.27;5.65;;;18.00;98.00;;;19.50;48.65;100965.78;6218180;23;20013;-89
2021/09/20 08:50:38;;;;;;;9.40;5.95;;;18.10;97.50;;;19.41;47.99;100966.25;6207112;23;20013;-89
2021/09/20 08:53:08;;;;;;;8.77;6.13;;;18.20;96.50;;;19.51;47.27;100964.59;6224165;23;20044;-90
2021/09/20 08:55:36;;;;;;;8.80;5.10;;;18.20;95.80;;;19.12;45.95;100972.38;6193458;23;20059;-87
2021/09/20 08:58:04;;;;;;;6.30;5.03;;;18.10;93.50;;;18.66;45.93;100958.28;6218116;23;20008;-87
2021/09/20 09:00:31;;;;;;;7.70;4.45;;;18.00;92.20;;;18.57;47.44;100967.19;6193024;23;20008;-86
2021/09/20 09:02:59;;;;;;;6.20;4.15;;;17.80;93.30;;;18.72;46.80;100971.63;6192701;23;20001;-85
2021/09/20 09:05:33;;;;;;;7.57;4.90;;;17.80;92.80;;;18.74;45.60;100957.09;6193418;23;20451;-87
2021/09/20 09:08:05;;;;;;;6.22;4.50;;;17.80;91.70;;;19.09;46.06;100965.50;6218482;23;20269;-87
2021/09/20 09:10:38;;;;;;;6.32;4.22;;;17.90;92.20;;;19.16;45.57;100976.00;6194314;23;20079;-87
2021/09/20 09:13:11;;;;;;;7.55;5.38;;;18.00;91.80;;;19.04;46.46;100977.22;6220338;23;20390;-88
2021/09/20 09:15:38;;;;;;;6.30;4.32;;;18.00;92.10;;;19.36;45.93;100975.13;6219076;23;20017;-90
2021/09/20 09:18:07;;;;;;;5.53;4.07;;;18.20;91.70;;;19.67;45.50;100981.91;6193182;23;20614;-88
2021/09/20 09:20:39;;;;;;;5.55;4.80;;;18.40;91.70;;;19.43;44.76;100991.31;6219210;23;20140;-86
2021/09/20 09:23:12;;;;;;;7.78;5.30;;;18.40;90.30;;;19.56;46.03;100978.31;6218730;23;20076;-85
2021/09/20 09:25:45;;;;;;;8.27;5.50;;;18.50;91.20;;;19.64;46.05;100976.25;6192687;23;20015;-87
2021/09/20 09:28:29;;;;;;;5.88;5.20;;;18.60;91.20;;;19.80;46.79;100973.75;6194045;23;20008;-86
2021/09/20 09:31:02;;;;;;;8.43;5.45;;;18.70;91.80;;;20.33;45.66;100981.94;6192504;23;20339;-86
2021/09/20 09:33:42;;;;;;;9.38;5.75;;;18.90;91.50;;;20.71;44.93;100983.63;6217759;23;20032;-88
2021/09/20 09:36:10;;;;;;;8.32;5.90;;;19.10;91.30;;;20.61;45.03;100981.72;6217739;23;20044;-87
2021/09/20 09:38:36;;;;;;;6.82;5.60;;;19.20;91.00;;;20.48;44.90;100986.28;6216794;23;20096;-87
2021/09/20 09:41:05;;;;;;;12.15;6.18;;;19.30;90.30;;;20.61;45.07;100989.44;6194170;23;20099;-87
2021/09/20 09:43:35;;;;;;;9.70;5.95;;;19.30;90.60;;;19.97;45.32;100995.53;6195298;23;20013;-88
2021/09/20 09:46:21;;;;;;;8.07;5.82;;;18.90;90.00;;;19.70;46.30;100995.25;6194738;23;20008;-84
2021/09/20 09:48:49;;;;;;;7.82;5.38;;;18.60;91.30;;;19.83;46.67;100993.56;6220287;23;20013;-89
2021/09/20 09:51:18;;;;;;;7.30;5.50;;;18.70;90.90;;;20.51;44.83;100988.28;6194638;23;20074;-92
2021/09/20 09:53:48;;;;;;;9.52;5.43;;;19.00;90.10;;;20.37;44.64;100988.38;6194797;23;20016;-88
2021/09/20 09:56:13;;;;;;;10.30;5.53;;;19.10;89.10;;;20.22;44.92;100996.19;6194221;23;20015;-89
2021/09/20 09:58:57;;;;;;;6.60;5.25;;;18.90;89.10;;;20.15;45.94;100990.53;6221223;23;20009;-89
2021/09/20 10:01:39;;;;;;;8.73;5.10;;;18.80;90.40;;;20.76;44.30;101002.25;6195414;23;20012;-89
2021/09/20 10:04:30;;;;;;;7.70;5.53;;;19.10;89.00;;;20.46;44.90;100995.22;6195089;23;20005;-89
2021/09/20 10:06:58;;;;;;;7.53;5.60;;;18.90;89.80;;;20.02;46.32;100999.94;6221161;23;20015;-87
2021/09/20 10:09:30;;;;;;;7.53;5.47;;;18.60;90.50;;;19.50;47.01;100996.97;6195526;23;20009;-90